Bissett, Canada
Current Conditions -  °F | °C
As of 9:00 AM on Wednesday 26 Nov 2014 (Local Time) from CYRL Reporting Station
Clear Clear  
Wind Chill: -17°   Ceiling: Unl
Heat Index: -17°   Visibility: 15mi
Dew Point: -22°   Wind: 3mph
Humidity: 76%   Direction: 330°NNW
Pressure: 30.31"   Gusts: NA
Location:  51.02°N, 95.67°W
Report Text: CYRL 261500Z 33003KT 310V010 15SM SKC M27/M30 A3031 RMK FROIN SLP314
Loading
Personal Weather Stations






























Interactive Weather Map New forecast layout! Learn more

10-Day Weather Forecast

Advertisements
Track Severe Weather on mobile